sensor_id;sensor_type;location;lat;lon;timestamp;P1;durP1;ratioP1;P2;durP2;ratioP2
65691;SDS011;52411;52.716;6.696;2023-06-14T00:01:24;11.48;;;4.00;;
65691;SDS011;52411;52.716;6.696;2023-06-14T00:03:50;5.32;;;3.20;;
65691;SDS011;52411;52.716;6.696;2023-06-14T00:06:16;10.90;;;3.25;;
65691;SDS011;52411;52.716;6.696;2023-06-14T00:08:42;9.60;;;3.58;;
65691;SDS011;52411;52.716;6.696;2023-06-14T00:11:07;6.45;;;3.97;;
65691;SDS011;52411;52.716;6.696;2023-06-14T00:13:33;6.88;;;3.42;;
65691;SDS011;52411;52.716;6.696;2023-06-14T00:15:59;7.43;;;3.85;;
65691;SDS011;52411;52.716;6.696;2023-06-14T00:18:24;8.95;;;3.40;;
65691;SDS011;52411;52.716;6.696;2023-06-14T00:20:54;5.80;;;3.50;;
65691;SDS011;52411;52.716;6.696;2023-06-14T00:23:20;9.00;;;3.80;;
65691;SDS011;52411;52.716;6.696;2023-06-14T00:25:46;9.57;;;3.38;;
65691;SDS011;52411;52.716;6.696;2023-06-14T00:28:12;6.90;;;3.50;;
65691;SDS011;52411;52.716;6.696;2023-06-14T00:30:37;5.38;;;3.38;;
65691;SDS011;52411;52.716;6.696;2023-06-14T00:33:03;6.22;;;3.65;;
65691;SDS011;52411;52.716;6.696;2023-06-14T00:35:29;8.05;;;3.45;;
65691;SDS011;52411;52.716;6.696;2023-06-14T00:37:55;4.90;;;3.30;;
65691;SDS011;52411;52.716;6.696;2023-06-14T00:40:21;8.85;;;4.03;;
65691;SDS011;52411;52.716;6.696;2023-06-14T00:42:47;12.75;;;3.60;;
65691;SDS011;52411;52.716;6.696;2023-06-14T00:45:12;8.02;;;4.30;;
65691;SDS011;52411;52.716;6.696;2023-06-14T00:47:38;6.43;;;3.58;;
65691;SDS011;52411;52.716;6.696;2023-06-14T00:50:07;6.78;;;3.28;;
65691;SDS011;52411;52.716;6.696;2023-06-14T00:52:33;5.05;;;3.58;;
65691;SDS011;52411;52.716;6.696;2023-06-14T00:54:59;7.00;;;3.38;;
65691;SDS011;52411;52.716;6.696;2023-06-14T00:57:26;10.35;;;3.58;;
65691;SDS011;52411;52.716;6.696;2023-06-14T00:59:52;7.35;;;3.58;;
65691;SDS011;52411;52.716;6.696;2023-06-14T01:02:17;8.80;;;3.47;;
65691;SDS011;52411;52.716;6.696;2023-06-14T01:04:45;8.25;;;3.60;;
65691;SDS011;52411;52.716;6.696;2023-06-14T01:07:18;9.30;;;3.60;;
65691;SDS011;52411;52.716;6.696;2023-06-14T01:15:09;7.15;;;3.70;;
65691;SDS011;52411;52.716;6.696;2023-06-14T01:17:37;5.63;;;3.70;;
65691;SDS011;52411;52.716;6.696;2023-06-14T01:20:09;7.88;;;3.42;;
65691;SDS011;52411;52.716;6.696;2023-06-14T01:22:45;6.65;;;3.65;;
65691;SDS011;52411;52.716;6.696;2023-06-14T01:25:16;6.80;;;3.70;;
65691;SDS011;52411;52.716;6.696;2023-06-14T01:27:45;6.38;;;3.53;;
65691;SDS011;52411;52.716;6.696;2023-06-14T01:30:20;6.47;;;3.63;;
65691;SDS011;52411;52.716;6.696;2023-06-14T01:32:48;7.90;;;3.70;;
65691;SDS011;52411;52.716;6.696;2023-06-14T01:35:15;6.30;;;3.50;;
65691;SDS011;52411;52.716;6.696;2023-06-14T01:37:41;7.78;;;3.47;;
65691;SDS011;52411;52.716;6.696;2023-06-14T01:40:08;6.65;;;3.88;;
65691;SDS011;52411;52.716;6.696;2023-06-14T01:42:36;7.85;;;3.65;;
65691;SDS011;52411;52.716;6.696;2023-06-14T01:45:06;5.38;;;3.67;;
65691;SDS011;52411;52.716;6.696;2023-06-14T01:47:33;8.52;;;3.55;;
65691;SDS011;52411;52.716;6.696;2023-06-14T01:50:01;9.45;;;3.72;;
65691;SDS011;52411;52.716;6.696;2023-06-14T01:52:27;4.75;;;3.28;;
65691;SDS011;52411;52.716;6.696;2023-06-14T01:54:53;10.02;;;3.80;;
65691;SDS011;52411;52.716;6.696;2023-06-14T01:57:18;7.53;;;3.50;;
65691;SDS011;52411;52.716;6.696;2023-06-14T01:59:45;5.88;;;3.72;;
65691;SDS011;52411;52.716;6.696;2023-06-14T02:02:13;7.63;;;3.67;;
65691;SDS011;52411;52.716;6.696;2023-06-14T02:04:39;11.80;;;3.28;;
65691;SDS011;52411;52.716;6.696;2023-06-14T02:07:05;6.15;;;3.60;;
65691;SDS011;52411;52.716;6.696;2023-06-14T02:09:31;6.72;;;3.80;;
65691;SDS011;52411;52.716;6.696;2023-06-14T02:11:57;6.40;;;3.83;;
65691;SDS011;52411;52.716;6.696;2023-06-14T02:14:23;7.82;;;3.30;;
65691;SDS011;52411;52.716;6.696;2023-06-14T02:16:49;7.55;;;3.80;;
65691;SDS011;52411;52.716;6.696;2023-06-14T02:19:15;6.55;;;3.90;;
65691;SDS011;52411;52.716;6.696;2023-06-14T02:21:41;7.35;;;3.50;;
65691;SDS011;52411;52.716;6.696;2023-06-14T02:24:07;6.55;;;3.47;;
65691;SDS011;52411;52.716;6.696;2023-06-14T02:26:33;6.15;;;3.92;;
65691;SDS011;52411;52.716;6.696;2023-06-14T02:28:59;8.63;;;3.85;;
65691;SDS011;52411;52.716;6.696;2023-06-14T02:31:25;9.68;;;4.18;;
65691;SDS011;52411;52.716;6.696;2023-06-14T02:33:51;8.32;;;3.80;;
65691;SDS011;52411;52.716;6.696;2023-06-14T02:36:17;9.73;;;3.70;;
65691;SDS011;52411;52.716;6.696;2023-06-14T02:38:43;8.77;;;3.88;;
65691;SDS011;52411;52.716;6.696;2023-06-14T02:41:08;8.25;;;3.70;;
65691;SDS011;52411;52.716;6.696;2023-06-14T02:43:34;5.35;;;3.95;;
65691;SDS011;52411;52.716;6.696;2023-06-14T02:46:00;7.50;;;3.90;;
65691;SDS011;52411;52.716;6.696;2023-06-14T02:48:26;11.35;;;3.90;;
65691;SDS011;52411;52.716;6.696;2023-06-14T02:50:52;7.32;;;3.60;;
65691;SDS011;52411;52.716;6.696;2023-06-14T02:53:18;10.90;;;3.90;;
65691;SDS011;52411;52.716;6.696;2023-06-14T02:55:43;8.07;;;4.20;;
65691;SDS011;52411;52.716;6.696;2023-06-14T02:58:09;6.47;;;4.00;;
65691;SDS011;52411;52.716;6.696;2023-06-14T03:00:34;9.20;;;3.92;;
65691;SDS011;52411;52.716;6.696;2023-06-14T03:03:01;6.38;;;4.07;;
65691;SDS011;52411;52.716;6.696;2023-06-14T03:05:27;7.20;;;4.05;;
65691;SDS011;52411;52.716;6.696;2023-06-14T03:07:53;8.20;;;3.95;;
65691;SDS011;52411;52.716;6.696;2023-06-14T03:10:19;7.88;;;4.25;;
65691;SDS011;52411;52.716;6.696;2023-06-14T03:12:45;8.55;;;4.43;;
65691;SDS011;52411;52.716;6.696;2023-06-14T03:15:12;6.68;;;4.00;;
65691;SDS011;52411;52.716;6.696;2023-06-14T03:17:38;8.30;;;3.67;;
65691;SDS011;52411;52.716;6.696;2023-06-14T03:20:04;7.10;;;4.05;;
65691;SDS011;52411;52.716;6.696;2023-06-14T03:22:30;9.13;;;4.50;;
65691;SDS011;52411;52.716;6.696;2023-06-14T03:24:59;7.47;;;3.90;;
65691;SDS011;52411;52.716;6.696;2023-06-14T03:27:25;6.20;;;4.15;;
65691;SDS011;52411;52.716;6.696;2023-06-14T03:29:53;7.38;;;4.10;;
65691;SDS011;52411;52.716;6.696;2023-06-14T03:32:18;8.07;;;3.97;;
65691;SDS011;52411;52.716;6.696;2023-06-14T03:34:44;6.57;;;4.32;;
65691;SDS011;52411;52.716;6.696;2023-06-14T03:37:10;8.75;;;4.18;;
65691;SDS011;52411;52.716;6.696;2023-06-14T03:39:35;13.70;;;4.60;;
65691;SDS011;52411;52.716;6.696;2023-06-14T03:42:01;7.88;;;4.32;;
65691;SDS011;52411;52.716;6.696;2023-06-14T03:44:27;8.07;;;4.40;;
65691;SDS011;52411;52.716;6.696;2023-06-14T03:46:53;7.38;;;4.03;;
65691;SDS011;52411;52.716;6.696;2023-06-14T03:49:18;7.57;;;4.28;;
65691;SDS011;52411;52.716;6.696;2023-06-14T03:51:44;8.43;;;4.40;;
65691;SDS011;52411;52.716;6.696;2023-06-14T03:54:10;7.63;;;4.43;;
65691;SDS011;52411;52.716;6.696;2023-06-14T03:56:36;7.43;;;4.05;;
65691;SDS011;52411;52.716;6.696;2023-06-14T03:59:02;6.55;;;4.40;;
65691;SDS011;52411;52.716;6.696;2023-06-14T04:01:27;10.30;;;4.70;;
65691;SDS011;52411;52.716;6.696;2023-06-14T04:03:57;8.10;;;4.32;;
65691;SDS011;52411;52.716;6.696;2023-06-14T04:06:23;6.45;;;4.10;;
65691;SDS011;52411;52.716;6.696;2023-06-14T04:08:50;7.40;;;4.18;;
65691;SDS011;52411;52.716;6.696;2023-06-14T04:11:17;8.13;;;4.35;;
65691;SDS011;52411;52.716;6.696;2023-06-14T04:13:42;6.90;;;4.25;;
65691;SDS011;52411;52.716;6.696;2023-06-14T04:16:08;7.60;;;4.68;;
65691;SDS011;52411;52.716;6.696;2023-06-14T04:18:34;10.65;;;4.30;;
65691;SDS011;52411;52.716;6.696;2023-06-14T04:21:00;8.52;;;4.68;;
65691;SDS011;52411;52.716;6.696;2023-06-14T04:23:26;7.90;;;4.47;;
65691;SDS011;52411;52.716;6.696;2023-06-14T04:25:53;9.32;;;4.80;;
65691;SDS011;52411;52.716;6.696;2023-06-14T04:28:18;7.95;;;4.40;;
65691;SDS011;52411;52.716;6.696;2023-06-14T04:30:44;6.63;;;4.38;;
65691;SDS011;52411;52.716;6.696;2023-06-14T04:33:13;9.32;;;4.60;;
65691;SDS011;52411;52.716;6.696;2023-06-14T04:35:39;6.75;;;4.45;;
65691;SDS011;52411;52.716;6.696;2023-06-14T04:38:05;5.50;;;4.10;;
65691;SDS011;52411;52.716;6.696;2023-06-14T04:40:34;6.40;;;4.57;;
65691;SDS011;52411;52.716;6.696;2023-06-14T04:43:07;10.75;;;4.78;;
65691;SDS011;52411;52.716;6.696;2023-06-14T04:45:33;9.07;;;4.57;;
65691;SDS011;52411;52.716;6.696;2023-06-14T04:47:59;9.25;;;4.65;;
65691;SDS011;52411;52.716;6.696;2023-06-14T04:50:25;7.65;;;4.25;;
65691;SDS011;52411;52.716;6.696;2023-06-14T04:52:50;6.22;;;4.57;;
65691;SDS011;52411;52.716;6.696;2023-06-14T04:55:18;8.25;;;4.88;;
65691;SDS011;52411;52.716;6.696;2023-06-14T04:57:45;8.57;;;4.75;;
65691;SDS011;52411;52.716;6.696;2023-06-14T05:00:10;7.13;;;4.65;;
65691;SDS011;52411;52.716;6.696;2023-06-14T05:02:36;11.38;;;5.22;;
65691;SDS011;52411;52.716;6.696;2023-06-14T05:05:03;9.27;;;5.30;;
65691;SDS011;52411;52.716;6.696;2023-06-14T05:07:32;7.13;;;4.97;;
65691;SDS011;52411;52.716;6.696;2023-06-14T05:09:58;10.18;;;4.90;;
65691;SDS011;52411;52.716;6.696;2023-06-14T05:12:24;7.68;;;4.93;;
65691;SDS011;52411;52.716;6.696;2023-06-14T05:14:50;9.00;;;5.50;;
65691;SDS011;52411;52.716;6.696;2023-06-14T05:17:16;10.77;;;5.22;;
65691;SDS011;52411;52.716;6.696;2023-06-14T05:19:42;12.27;;;5.30;;
65691;SDS011;52411;52.716;6.696;2023-06-14T05:22:08;12.63;;;5.78;;
65691;SDS011;52411;52.716;6.696;2023-06-14T05:24:33;10.50;;;5.93;;
65691;SDS011;52411;52.716;6.696;2023-06-14T05:26:59;7.72;;;5.22;;
65691;SDS011;52411;52.716;6.696;2023-06-14T05:29:25;10.95;;;5.38;;
65691;SDS011;52411;52.716;6.696;2023-06-14T05:31:52;13.40;;;5.95;;
65691;SDS011;52411;52.716;6.696;2023-06-14T05:34:17;10.15;;;5.68;;
65691;SDS011;52411;52.716;6.696;2023-06-14T05:36:43;12.63;;;6.03;;
65691;SDS011;52411;52.716;6.696;2023-06-14T05:39:09;10.85;;;6.10;;
65691;SDS011;52411;52.716;6.696;2023-06-14T05:41:35;9.95;;;6.00;;
65691;SDS011;52411;52.716;6.696;2023-06-14T05:44:01;9.23;;;5.55;;
65691;SDS011;52411;52.716;6.696;2023-06-14T05:46:26;12.95;;;6.00;;
65691;SDS011;52411;52.716;6.696;2023-06-14T05:48:53;10.57;;;5.75;;
65691;SDS011;52411;52.716;6.696;2023-06-14T05:51:20;8.30;;;5.40;;
65691;SDS011;52411;52.716;6.696;2023-06-14T05:53:46;9.25;;;5.50;;
65691;SDS011;52411;52.716;6.696;2023-06-14T05:56:12;10.48;;;5.88;;
65691;SDS011;52411;52.716;6.696;2023-06-14T05:58:38;16.50;;;5.55;;
65691;SDS011;52411;52.716;6.696;2023-06-14T06:01:04;19.52;;;5.88;;
65691;SDS011;52411;52.716;6.696;2023-06-14T06:03:29;8.57;;;5.32;;
65691;SDS011;52411;52.716;6.696;2023-06-14T06:05:55;8.73;;;5.03;;
65691;SDS011;52411;52.716;6.696;2023-06-14T06:08:21;13.82;;;5.18;;
65691;SDS011;52411;52.716;6.696;2023-06-14T06:10:46;10.68;;;4.95;;
65691;SDS011;52411;52.716;6.696;2023-06-14T06:13:12;13.38;;;5.10;;
65691;SDS011;52411;52.716;6.696;2023-06-14T06:15:37;18.42;;;4.70;;
65691;SDS011;52411;52.716;6.696;2023-06-14T06:18:03;9.20;;;4.63;;
65691;SDS011;52411;52.716;6.696;2023-06-14T06:20:29;8.70;;;4.60;;
65691;SDS011;52411;52.716;6.696;2023-06-14T06:22:59;12.10;;;4.63;;
65691;SDS011;52411;52.716;6.696;2023-06-14T06:25:25;9.40;;;4.57;;
65691;SDS011;52411;52.716;6.696;2023-06-14T06:27:52;8.15;;;4.55;;
65691;SDS011;52411;52.716;6.696;2023-06-14T06:30:23;7.93;;;4.10;;
65691;SDS011;52411;52.716;6.696;2023-06-14T06:32:50;6.60;;;4.10;;
65691;SDS011;52411;52.716;6.696;2023-06-14T06:35:16;6.55;;;4.35;;
65691;SDS011;52411;52.716;6.696;2023-06-14T06:37:42;10.52;;;4.30;;
65691;SDS011;52411;52.716;6.696;2023-06-14T06:40:08;11.60;;;4.28;;
65691;SDS011;52411;52.716;6.696;2023-06-14T06:42:34;9.05;;;4.75;;
65691;SDS011;52411;52.716;6.696;2023-06-14T06:45:00;8.02;;;4.78;;
65691;SDS011;52411;52.716;6.696;2023-06-14T06:47:26;8.32;;;4.22;;
65691;SDS011;52411;52.716;6.696;2023-06-14T06:49:51;9.23;;;4.13;;
65691;SDS011;52411;52.716;6.696;2023-06-14T06:52:17;6.88;;;4.03;;
65691;SDS011;52411;52.716;6.696;2023-06-14T06:54:43;5.88;;;3.95;;
65691;SDS011;52411;52.716;6.696;2023-06-14T06:57:08;11.32;;;4.30;;
65691;SDS011;52411;52.716;6.696;2023-06-14T06:59:35;6.10;;;3.90;;
65691;SDS011;52411;52.716;6.696;2023-06-14T07:02:01;10.45;;;4.00;;
65691;SDS011;52411;52.716;6.696;2023-06-14T07:04:27;11.88;;;4.22;;
65691;SDS011;52411;52.716;6.696;2023-06-14T07:06:52;8.75;;;4.38;;
65691;SDS011;52411;52.716;6.696;2023-06-14T07:09:18;8.32;;;4.40;;
65691;SDS011;52411;52.716;6.696;2023-06-14T07:11:45;15.80;;;5.35;;
65691;SDS011;52411;52.716;6.696;2023-06-14T07:14:11;7.13;;;4.05;;
65691;SDS011;52411;52.716;6.696;2023-06-14T07:16:37;14.15;;;4.10;;
65691;SDS011;52411;52.716;6.696;2023-06-14T07:19:03;8.90;;;3.95;;
65691;SDS011;52411;52.716;6.696;2023-06-14T07:21:29;6.97;;;4.00;;
65691;SDS011;52411;52.716;6.696;2023-06-14T07:23:55;7.53;;;3.65;;
65691;SDS011;52411;52.716;6.696;2023-06-14T07:26:21;6.05;;;3.85;;
65691;SDS011;52411;52.716;6.696;2023-06-14T07:28:47;7.95;;;4.18;;
65691;SDS011;52411;52.716;6.696;2023-06-14T07:31:13;10.40;;;3.90;;
65691;SDS011;52411;52.716;6.696;2023-06-14T07:33:44;9.70;;;3.70;;
65691;SDS011;52411;52.716;6.696;2023-06-14T07:36:10;7.53;;;4.20;;
65691;SDS011;52411;52.716;6.696;2023-06-14T07:38:35;9.63;;;3.85;;
65691;SDS011;52411;52.716;6.696;2023-06-14T07:41:01;6.18;;;3.75;;
65691;SDS011;52411;52.716;6.696;2023-06-14T07:43:27;6.68;;;4.00;;
65691;SDS011;52411;52.716;6.696;2023-06-14T07:45:53;7.50;;;3.83;;
65691;SDS011;52411;52.716;6.696;2023-06-14T07:48:18;17.13;;;4.13;;
65691;SDS011;52411;52.716;6.696;2023-06-14T07:50:44;7.22;;;3.60;;
65691;SDS011;52411;52.716;6.696;2023-06-14T07:53:09;8.13;;;3.80;;
65691;SDS011;52411;52.716;6.696;2023-06-14T07:55:35;8.10;;;3.78;;
65691;SDS011;52411;52.716;6.696;2023-06-14T07:58:06;5.95;;;3.80;;
65691;SDS011;52411;52.716;6.696;2023-06-14T08:00:32;5.70;;;3.83;;
65691;SDS011;52411;52.716;6.696;2023-06-14T08:02:57;8.95;;;4.38;;
65691;SDS011;52411;52.716;6.696;2023-06-14T08:05:27;7.88;;;3.70;;
65691;SDS011;52411;52.716;6.696;2023-06-14T08:07:53;6.60;;;3.58;;
65691;SDS011;52411;52.716;6.696;2023-06-14T08:10:19;5.95;;;3.60;;
65691;SDS011;52411;52.716;6.696;2023-06-14T08:12:45;6.07;;;3.58;;
65691;SDS011;52411;52.716;6.696;2023-06-14T08:15:10;9.73;;;3.80;;
65691;SDS011;52411;52.716;6.696;2023-06-14T08:17:36;5.30;;;3.50;;
65691;SDS011;52411;52.716;6.696;2023-06-14T08:20:02;4.10;;;3.22;;
65691;SDS011;52411;52.716;6.696;2023-06-14T08:22:30;5.75;;;3.33;;
65691;SDS011;52411;52.716;6.696;2023-06-14T08:24:59;7.50;;;3.30;;
65691;SDS011;52411;52.716;6.696;2023-06-14T08:27:26;8.60;;;3.25;;
65691;SDS011;52411;52.716;6.696;2023-06-14T08:29:52;6.47;;;2.85;;
65691;SDS011;52411;52.716;6.696;2023-06-14T08:32:17;5.70;;;3.05;;
65691;SDS011;52411;52.716;6.696;2023-06-14T08:34:43;5.53;;;3.22;;
65691;SDS011;52411;52.716;6.696;2023-06-14T08:37:08;9.50;;;3.10;;
65691;SDS011;52411;52.716;6.696;2023-06-14T08:39:34;6.60;;;2.90;;
65691;SDS011;52411;52.716;6.696;2023-06-14T08:42:01;4.95;;;3.05;;
65691;SDS011;52411;52.716;6.696;2023-06-14T08:44:27;9.38;;;2.95;;
65691;SDS011;52411;52.716;6.696;2023-06-14T08:46:54;8.75;;;2.85;;
65691;SDS011;52411;52.716;6.696;2023-06-14T08:49:24;9.02;;;3.70;;
65691;SDS011;52411;52.716;6.696;2023-06-14T08:51:56;5.53;;;3.05;;
65691;SDS011;52411;52.716;6.696;2023-06-14T08:54:23;7.78;;;3.22;;
65691;SDS011;52411;52.716;6.696;2023-06-14T08:56:55;7.55;;;3.10;;
65691;SDS011;52411;52.716;6.696;2023-06-14T08:59:24;7.22;;;3.30;;
65691;SDS011;52411;52.716;6.696;2023-06-14T09:01:51;5.07;;;2.70;;
65691;SDS011;52411;52.716;6.696;2023-06-14T09:04:17;6.25;;;2.70;;
65691;SDS011;52411;52.716;6.696;2023-06-14T09:06:44;3.38;;;2.63;;
65691;SDS011;52411;52.716;6.696;2023-06-14T09:09:10;4.47;;;2.80;;
65691;SDS011;52411;52.716;6.696;2023-06-14T09:11:37;7.40;;;2.78;;
65691;SDS011;52411;52.716;6.696;2023-06-14T09:14:03;5.63;;;2.50;;
65691;SDS011;52411;52.716;6.696;2023-06-14T09:16:31;5.93;;;2.60;;
65691;SDS011;52411;52.716;6.696;2023-06-14T09:18:58;28.85;;;4.03;;
65691;SDS011;52411;52.716;6.696;2023-06-14T09:21:24;9.93;;;3.03;;
65691;SDS011;52411;52.716;6.696;2023-06-14T09:23:49;6.35;;;2.65;;
65691;SDS011;52411;52.716;6.696;2023-06-14T09:26:16;6.75;;;2.58;;
65691;SDS011;52411;52.716;6.696;2023-06-14T09:28:43;3.92;;;2.50;;
65691;SDS011;52411;52.716;6.696;2023-06-14T09:31:10;15.30;;;3.30;;
65691;SDS011;52411;52.716;6.696;2023-06-14T09:33:36;4.43;;;2.40;;
65691;SDS011;52411;52.716;6.696;2023-06-14T09:36:02;4.50;;;2.53;;
65691;SDS011;52411;52.716;6.696;2023-06-14T09:38:29;10.27;;;2.50;;
65691;SDS011;52411;52.716;6.696;2023-06-14T09:40:58;32.60;;;3.85;;
65691;SDS011;52411;52.716;6.696;2023-06-14T09:43:24;18.00;;;3.17;;
65691;SDS011;52411;52.716;6.696;2023-06-14T09:45:51;13.88;;;2.70;;
65691;SDS011;52411;52.716;6.696;2023-06-14T09:48:17;11.13;;;2.85;;
65691;SDS011;52411;52.716;6.696;2023-06-14T09:50:47;16.50;;;2.88;;
65691;SDS011;52411;52.716;6.696;2023-06-14T09:53:15;9.18;;;2.60;;
65691;SDS011;52411;52.716;6.696;2023-06-14T09:55:44;10.68;;;2.53;;
65691;SDS011;52411;52.716;6.696;2023-06-14T09:58:11;7.82;;;2.53;;
65691;SDS011;52411;52.716;6.696;2023-06-14T10:00:39;15.13;;;2.92;;
65691;SDS011;52411;52.716;6.696;2023-06-14T10:03:09;7.97;;;2.38;;
65691;SDS011;52411;52.716;6.696;2023-06-14T10:05:38;28.77;;;3.60;;
65691;SDS011;52411;52.716;6.696;2023-06-14T10:08:10;42.53;;;4.57;;
65691;SDS011;52411;52.716;6.696;2023-06-14T10:10:43;19.15;;;2.67;;
65691;SDS011;52411;52.716;6.696;2023-06-14T10:13:09;12.52;;;2.60;;
65691;SDS011;52411;52.716;6.696;2023-06-14T10:15:48;5.13;;;2.40;;
65691;SDS011;52411;52.716;6.696;2023-06-14T10:18:24;9.93;;;2.20;;
65691;SDS011;52411;52.716;6.696;2023-06-14T10:21:05;25.85;;;3.05;;
65691;SDS011;52411;52.716;6.696;2023-06-14T10:23:35;4.60;;;2.10;;
65691;SDS011;52411;52.716;6.696;2023-06-14T10:26:05;7.10;;;2.40;;
65691;SDS011;52411;52.716;6.696;2023-06-14T10:28:31;17.98;;;2.83;;
65691;SDS011;52411;52.716;6.696;2023-06-14T10:31:07;9.40;;;2.40;;
65691;SDS011;52411;52.716;6.696;2023-06-14T10:33:50;27.60;;;3.10;;
65691;SDS011;52411;52.716;6.696;2023-06-14T10:38:56;7.85;;;2.42;;
65691;SDS011;52411;52.716;6.696;2023-06-14T10:41:23;7.03;;;2.20;;
65691;SDS011;52411;52.716;6.696;2023-06-14T10:43:50;24.38;;;3.00;;
65691;SDS011;52411;52.716;6.696;2023-06-14T10:46:17;16.90;;;2.70;;
65691;SDS011;52411;52.716;6.696;2023-06-14T10:48:44;17.02;;;3.17;;
65691;SDS011;52411;52.716;6.696;2023-06-14T10:51:19;10.07;;;2.55;;
65691;SDS011;52411;52.716;6.696;2023-06-14T10:53:46;8.77;;;3.17;;
65691;SDS011;52411;52.716;6.696;2023-06-14T10:56:22;6.90;;;2.50;;
65691;SDS011;52411;52.716;6.696;2023-06-14T10:58:52;20.40;;;3.72;;
65691;SDS011;52411;52.716;6.696;2023-06-14T11:01:26;28.23;;;3.70;;
65691;SDS011;52411;52.716;6.696;2023-06-14T11:04:11;7.28;;;2.60;;
65691;SDS011;52411;52.716;6.696;2023-06-14T11:09:38;18.95;;;3.70;;
65691;SDS011;52411;52.716;6.696;2023-06-14T11:12:22;6.13;;;2.45;;
65691;SDS011;52411;52.716;6.696;2023-06-14T11:14:50;7.63;;;2.72;;
65691;SDS011;52411;52.716;6.696;2023-06-14T11:17:15;34.35;;;4.28;;
65691;SDS011;52411;52.716;6.696;2023-06-14T11:19:41;24.05;;;3.67;;
65691;SDS011;52411;52.716;6.696;2023-06-14T11:22:06;8.52;;;3.10;;
65691;SDS011;52411;52.716;6.696;2023-06-14T11:24:32;5.00;;;2.63;;
65691;SDS011;52411;52.716;6.696;2023-06-14T11:26:58;6.15;;;2.78;;
65691;SDS011;52411;52.716;6.696;2023-06-14T11:29:23;12.13;;;2.97;;
65691;SDS011;52411;52.716;6.696;2023-06-14T11:31:50;5.57;;;2.75;;
65691;SDS011;52411;52.716;6.696;2023-06-14T11:34:15;7.97;;;2.67;;
65691;SDS011;52411;52.716;6.696;2023-06-14T11:36:42;8.35;;;2.50;;
65691;SDS011;52411;52.716;6.696;2023-06-14T11:39:08;5.78;;;2.67;;
65691;SDS011;52411;52.716;6.696;2023-06-14T11:41:43;6.90;;;2.50;;
65691;SDS011;52411;52.716;6.696;2023-06-14T11:44:10;7.07;;;2.67;;
65691;SDS011;52411;52.716;6.696;2023-06-14T11:46:36;4.53;;;2.40;;
65691;SDS011;52411;52.716;6.696;2023-06-14T11:49:03;10.25;;;2.65;;
65691;SDS011;52411;52.716;6.696;2023-06-14T11:51:33;5.38;;;2.40;;
65691;SDS011;52411;52.716;6.696;2023-06-14T11:54:00;5.80;;;2.77;;
65691;SDS011;52411;52.716;6.696;2023-06-14T11:56:27;8.02;;;2.80;;
65691;SDS011;52411;52.716;6.696;2023-06-14T11:58:54;5.85;;;2.67;;
65691;SDS011;52411;52.716;6.696;2023-06-14T12:01:22;5.05;;;2.78;;
65691;SDS011;52411;52.716;6.696;2023-06-14T12:03:51;7.53;;;2.70;;
65691;SDS011;52411;52.716;6.696;2023-06-14T12:08:55;6.97;;;2.80;;
65691;SDS011;52411;52.716;6.696;2023-06-14T12:11:20;4.95;;;2.45;;
65691;SDS011;52411;52.716;6.696;2023-06-14T12:13:46;4.28;;;2.50;;
65691;SDS011;52411;52.716;6.696;2023-06-14T12:16:14;3.17;;;2.55;;
65691;SDS011;52411;52.716;6.696;2023-06-14T12:18:40;7.15;;;2.58;;
65691;SDS011;52411;52.716;6.696;2023-06-14T12:21:08;4.28;;;2.47;;
65691;SDS011;52411;52.716;6.696;2023-06-14T12:26:17;5.82;;;2.90;;
65691;SDS011;52411;52.716;6.696;2023-06-14T12:28:44;3.25;;;2.70;;
65691;SDS011;52411;52.716;6.696;2023-06-14T12:31:12;26.55;;;3.30;;
65691;SDS011;52411;52.716;6.696;2023-06-14T12:33:38;7.65;;;2.70;;
65691;SDS011;52411;52.716;6.696;2023-06-14T12:36:05;6.13;;;2.83;;
65691;SDS011;52411;52.716;6.696;2023-06-14T12:38:33;10.23;;;3.33;;
65691;SDS011;52411;52.716;6.696;2023-06-14T12:40:59;4.43;;;2.70;;
65691;SDS011;52411;52.716;6.696;2023-06-14T12:43:25;4.28;;;2.50;;
65691;SDS011;52411;52.716;6.696;2023-06-14T12:45:50;3.65;;;2.78;;
65691;SDS011;52411;52.716;6.696;2023-06-14T12:48:16;6.05;;;2.83;;
65691;SDS011;52411;52.716;6.696;2023-06-14T12:50:41;5.40;;;2.92;;
65691;SDS011;52411;52.716;6.696;2023-06-14T12:53:07;6.53;;;2.78;;
65691;SDS011;52411;52.716;6.696;2023-06-14T12:55:33;5.35;;;2.67;;
65691;SDS011;52411;52.716;6.696;2023-06-14T12:57:58;4.47;;;2.83;;
65691;SDS011;52411;52.716;6.696;2023-06-14T13:00:24;3.55;;;2.40;;
65691;SDS011;52411;52.716;6.696;2023-06-14T13:02:54;4.43;;;2.60;;
65691;SDS011;52411;52.716;6.696;2023-06-14T13:05:20;7.20;;;2.58;;
65691;SDS011;52411;52.716;6.696;2023-06-14T13:07:46;9.68;;;2.70;;
65691;SDS011;52411;52.716;6.696;2023-06-14T13:10:12;7.28;;;2.72;;
65691;SDS011;52411;52.716;6.696;2023-06-14T13:12:37;8.07;;;2.63;;
65691;SDS011;52411;52.716;6.696;2023-06-14T13:15:03;5.70;;;2.40;;
65691;SDS011;52411;52.716;6.696;2023-06-14T13:17:29;5.90;;;2.50;;
65691;SDS011;52411;52.716;6.696;2023-06-14T13:19:54;18.30;;;2.88;;
65691;SDS011;52411;52.716;6.696;2023-06-14T13:22:20;6.10;;;2.90;;
65691;SDS011;52411;52.716;6.696;2023-06-14T13:24:46;5.47;;;2.60;;
65691;SDS011;52411;52.716;6.696;2023-06-14T13:27:11;4.28;;;2.63;;
65691;SDS011;52411;52.716;6.696;2023-06-14T13:29:39;9.52;;;2.80;;
65691;SDS011;52411;52.716;6.696;2023-06-14T13:32:05;12.63;;;2.60;;
65691;SDS011;52411;52.716;6.696;2023-06-14T13:34:31;5.57;;;2.30;;
65691;SDS011;52411;52.716;6.696;2023-06-14T13:36:56;4.20;;;2.45;;
65691;SDS011;52411;52.716;6.696;2023-06-14T13:39:23;3.80;;;2.53;;
65691;SDS011;52411;52.716;6.696;2023-06-14T13:41:50;11.48;;;2.80;;
65691;SDS011;52411;52.716;6.696;2023-06-14T13:44:15;6.20;;;2.60;;
65691;SDS011;52411;52.716;6.696;2023-06-14T13:46:43;4.40;;;2.55;;
65691;SDS011;52411;52.716;6.696;2023-06-14T13:49:10;6.70;;;2.50;;
65691;SDS011;52411;52.716;6.696;2023-06-14T13:51:37;5.13;;;2.33;;
65691;SDS011;52411;52.716;6.696;2023-06-14T13:54:02;3.58;;;2.50;;
65691;SDS011;52411;52.716;6.696;2023-06-14T13:56:28;2.45;;;2.10;;
65691;SDS011;52411;52.716;6.696;2023-06-14T13:58:55;4.93;;;2.70;;
65691;SDS011;52411;52.716;6.696;2023-06-14T14:01:21;5.40;;;2.50;;
65691;SDS011;52411;52.716;6.696;2023-06-14T14:03:48;3.20;;;2.20;;
65691;SDS011;52411;52.716;6.696;2023-06-14T14:06:14;5.88;;;2.50;;
65691;SDS011;52411;52.716;6.696;2023-06-14T14:08:41;7.47;;;2.35;;
65691;SDS011;52411;52.716;6.696;2023-06-14T14:11:07;6.90;;;2.60;;
65691;SDS011;52411;52.716;6.696;2023-06-14T14:13:33;5.15;;;2.55;;
65691;SDS011;52411;52.716;6.696;2023-06-14T14:16:03;5.28;;;2.35;;
65691;SDS011;52411;52.716;6.696;2023-06-14T14:18:29;4.63;;;2.30;;
65691;SDS011;52411;52.716;6.696;2023-06-14T14:20:55;5.05;;;2.40;;
65691;SDS011;52411;52.716;6.696;2023-06-14T14:23:21;9.77;;;2.58;;
65691;SDS011;52411;52.716;6.696;2023-06-14T14:25:47;5.35;;;2.40;;
65691;SDS011;52411;52.716;6.696;2023-06-14T14:28:13;5.63;;;2.58;;
65691;SDS011;52411;52.716;6.696;2023-06-14T14:30:41;3.20;;;2.40;;
65691;SDS011;52411;52.716;6.696;2023-06-14T14:33:07;5.03;;;2.40;;
65691;SDS011;52411;52.716;6.696;2023-06-14T14:35:33;8.82;;;2.47;;
65691;SDS011;52411;52.716;6.696;2023-06-14T14:37:58;4.22;;;2.42;;
65691;SDS011;52411;52.716;6.696;2023-06-14T14:40:24;3.38;;;2.45;;
65691;SDS011;52411;52.716;6.696;2023-06-14T14:42:50;4.55;;;2.35;;
65691;SDS011;52411;52.716;6.696;2023-06-14T14:45:15;5.18;;;2.38;;
65691;SDS011;52411;52.716;6.696;2023-06-14T14:47:41;3.90;;;2.20;;
65691;SDS011;52411;52.716;6.696;2023-06-14T14:50:06;4.97;;;2.30;;
65691;SDS011;52411;52.716;6.696;2023-06-14T14:52:35;4.90;;;2.40;;
65691;SDS011;52411;52.716;6.696;2023-06-14T14:55:01;3.63;;;2.50;;
65691;SDS011;52411;52.716;6.696;2023-06-14T14:57:27;3.22;;;2.50;;
65691;SDS011;52411;52.716;6.696;2023-06-14T14:59:53;3.78;;;2.50;;